WetterOnline ( https://www.wetteronline.at )

Wetter aktuell Itzehoe

Aktuelles Wetter: Itzehoe (26m)

6-stündlich | Neueste Meldungen
Ortszeit Temperatur Wetter
Mi, 30.11. 7:00 3.9° C bedeckt
Mi, 30.11. 1:00 3.6° C bewölkt
Di, 29.11. 19:00 4.0° C bedeckt
Di, 29.11. 13:00 4.3° C Sprühregen
Di, 29.11. 7:00 3.3° C bedeckt
Di, 29.11. 1:00 3.8° C leichter Regen
Mo, 28.11. 19:00 3.8° C leichter Regen
Mo, 28.11. 13:00 4.5° C leichter Regen
Ortszeit Temperatur Wetter
Mi, 30.11. 11:30 4.4° C bedeckt
Mi, 30.11. 11:20 4.4° C Dunst
Mi, 30.11. 11:10 4.4° C Dunst
Mi, 30.11. 11:00 4.3° C bedeckt
Mi, 30.11. 10:50 4.3° C Dunst
Mi, 30.11. 10:40 4.3° C Dunst
Mi, 30.11. 10:30 4.3° C bewölkt
Mi, 30.11. 10:00 4.2° C bedeckt
Mi, 30.11. 9:30 4.1° C bedeckt
Mi, 30.11. 9:00 4.0° C bedeckt
Mi, 30.11. 8:30 4.0° C bedeckt
Ortszeit Relative Feuchte Sichtweite
Mi, 30.11. 7:00 94% 2.9 km
Mi, 30.11. 1:00 93% 4.3 km
Di, 29.11. 19:00 93% 4.8 km
Di, 29.11. 13:00 91% 6 km
Di, 29.11. 7:00 94% 5.0 km
Di, 29.11. 1:00 94% 7 km
Mo, 28.11. 19:00 95% 10 km
Mo, 28.11. 13:00 90% 15 km
Ortszeit Relative Feuchte Sichtweite
Mi, 30.11. 11:30 93% 2.9 km
Mi, 30.11. 11:20 93% -
Mi, 30.11. 11:10 94% -
Mi, 30.11. 11:00 93% 3.1 km
Mi, 30.11. 10:50 93% -
Mi, 30.11. 10:40 94% -
Mi, 30.11. 10:30 93% 3.4 km
Mi, 30.11. 10:00 94% 2.9 km
Mi, 30.11. 9:30 94% 3.2 km
Mi, 30.11. 9:00 95% 2.9 km
Mi, 30.11. 8:30 94% 2.9 km
Ortszeit Niederschlagsmenge Niederschlagsart
Mi, 30.11. 7:00 0.3 l/m2 in 12 Std. -
Mi, 30.11. 1:00 0.3 l/m2 in 6 Std. Regen
Di, 29.11. 19:00 0.1 l/m2 in 12 Std. Regen
Di, 29.11. 13:00 0.1 l/m2 in 6 Std. Regen
Di, 29.11. 7:00 3 l/m2 in 12 Std. Regen
Di, 29.11. 1:00 3 l/m2 in 6 Std. Regen
Mo, 28.11. 19:00 5 l/m2 in 12 Std. Regen
Mo, 28.11. 13:00 3 l/m2 in 6 Std. Regen
Ortszeit Niederschlagsmenge Niederschlagsart
Mi, 30.11. 11:30 0.0 l/m2 in 1 Std. -
Mi, 30.11. 11:20 keine Meldung -
Mi, 30.11. 11:10 keine Meldung -
Mi, 30.11. 11:00 0.0 l/m2 in 1 Std. -
Mi, 30.11. 10:50 keine Meldung -
Mi, 30.11. 10:40 keine Meldung -
Mi, 30.11. 10:30 0.0 l/m2 in 1 Std. -
Mi, 30.11. 10:00 0.0 l/m2 in 1 Std. -
Mi, 30.11. 9:30 0.0 l/m2 in 1 Std. -
Mi, 30.11. 9:00 0.0 l/m2 in 1 Std. -
Mi, 30.11. 8:30 0.0 l/m2 in 1 Std. -
Ortszeit Stärke Spitze Richtung
km/h Bft. km/h Grad Sektor
Mi, 30.11. 7:00 7 2 18 60° NO
Mi, 30.11. 1:00 7 2 14 60° NO
Di, 29.11. 19:00 7 2 20 80° O
Di, 29.11. 13:00 7 2 22 100° O
Di, 29.11. 7:00 7 2 20 100° O
Di, 29.11. 1:00 7 2 18 100° O
Mo, 28.11. 19:00 9 2 28 120° SO
Mo, 28.11. 13:00 13 3 31 120° SO
Ortszeit Stärke Spitze Richtung
km/h Bft. km/h Grad Sektor
Mi, 30.11. 11:30 7 2 18 70° O
Mi, 30.11. 11:20 7 2 - 70° O
Mi, 30.11. 11:10 7 2 - 80° O
Mi, 30.11. 11:00 7 2 14 70° O
Mi, 30.11. 10:50 7 2 - 70° O
Mi, 30.11. 10:40 7 2 - 70° O
Mi, 30.11. 10:30 7 2 14 70° O
Mi, 30.11. 10:00 6 1 11 80° O
Mi, 30.11. 9:30 6 1 11 70° O
Mi, 30.11. 9:00 6 1 13 60° NO
Mi, 30.11. 8:30 7 2 11 60° NO
Ortszeit Untergrenze Bedeckung Gattung
total tief tief mittel hoch
Mi, 30.11. 7:00 150 m 8/8 8/8 - - -
Mi, 30.11. 1:00 240 m 7/8 7/8 - - -
Di, 29.11. 19:00 330 m 8/8 8/8 - - -
Di, 29.11. 13:00 270 m 8/8 8/8 - - -
Di, 29.11. 7:00 1050 m 8/8 8/8 - - -
Di, 29.11. 1:00 1290 m 8/8 8/8 - - -
Mo, 28.11. 19:00 1470 m 7/8 7/8 - - -
Mo, 28.11. 13:00 660 m 7/8 7/8 - - -
Ortszeit Bedeckungsgrad in Achtel und Wolkenuntergrenze
Mi, 30.11. 11:30 8(180m)
Mi, 30.11. 11:20 8(180m)
Mi, 30.11. 11:10 8
Mi, 30.11. 11:00 8(150m)
Mi, 30.11. 10:50 8(150m)
Mi, 30.11. 10:40 8
Mi, 30.11. 10:30 7(150m)
Mi, 30.11. 10:00 8(150m)
Mi, 30.11. 9:30 8(150m)
Mi, 30.11. 9:00 8(150m)
Mi, 30.11. 8:30 8(150m)
Ortszeit Luftdruck NN (hPa) Tendenz (hPa in 3 Std.)
Mi, 30.11. 7:00 1024 + 0,9
Mi, 30.11. 1:00 1023 + 0,7
Di, 29.11. 19:00 1022 + 1,3
Di, 29.11. 13:00 1019 + 0,7
Di, 29.11. 7:00 1017 + 1,3
Di, 29.11. 1:00 1015 + 0,4
Mo, 28.11. 19:00 1014 + 1,1
Mo, 28.11. 13:00 1013 0,0
Ortszeit Luftdruck NN (hPa) Tendenz (hPa in 3 Std.)
Mi, 30.11. 11:30 1026 + 0,9
Mi, 30.11. 11:20 1026 keine Meldung
Mi, 30.11. 11:10 1026 keine Meldung
Mi, 30.11. 11:00 1026 + 1,1
Mi, 30.11. 10:50 1026 keine Meldung
Mi, 30.11. 10:40 1026 keine Meldung
Mi, 30.11. 10:30 1026 + 1,2
Mi, 30.11. 10:00 1025 + 1,1
Mi, 30.11. 9:30 1025 + 1,1
Mi, 30.11. 9:00 1025 + 1,0
Mi, 30.11. 8:30 1025 + 0,9
Ortszeit Schneehöhe (cm)
Mi, 30.11. 7:00 -
Mi, 30.11. 1:00 -
Di, 29.11. 19:00 -
Di, 29.11. 13:00 -
Di, 29.11. 7:00 -
Di, 29.11. 1:00 -
Mo, 28.11. 19:00 -
Mo, 28.11. 13:00 -
Ortszeit Schneehöhe (cm)
Mi, 30.11. 11:30 -
Mi, 30.11. 11:20 -
Mi, 30.11. 11:10 -
Mi, 30.11. 11:00 -
Mi, 30.11. 10:50 -
Mi, 30.11. 10:40 -
Mi, 30.11. 10:30 -
Mi, 30.11. 10:00 -
Mi, 30.11. 9:30 -
Mi, 30.11. 9:00 -
Mi, 30.11. 8:30 -
Link zu dieser Seite / Seite empfehlen

Das Wetter in ...